Piarco, Trinidad And Tobago

4:56 AM AST on September 01, 2015 (GMT -0400)
Piarco International | | Change Station
CLOSE
Current Station
Airport
Location: Piarco,
Elevation: 49 ft
Nearby Weather Stations

Elev 49 ft 10.59 °N, 61.35 °W | Updated 56 minutes ago

Partly Cloudy
Partly Cloudy
77 °F
Feels Like 77 °F
N
0
Wind Variable Wind from North

Today
High -- | Low -- °F
--% Chance of Precip.
Yesterday
High -- | Low -- °F
Precip. -- in
5:55 AM 6:14 PM
Waning Gibbous, 90% visible
Pressure 29.92 in
Visibility 6.2 miles
Clouds Few 1600 ft
Dew Point 75 °F
Humidity 94%
Rainfall 0.00 in
Snow Depth Not available.
UV 0 out of 12
Pollen Not available.
Air Quality Not available.
Flu Activity Not available.
METAR TTPP 010800Z 00000KT 9999 FEW016 25/24 Q1013 NOSIG
Pressure 29.92 in
Visibility 6.2 miles
Clouds Few 1600 ft
Dew Point 75 °F
Humidity 94%
Rainfall 0.00 in
Snow Depth Not available.
UV 0 out of 12
Pollen Not available.
Air Quality Not available.
Flu Activity Not available.
METAR TTPP 010800Z 00000KT 9999 FEW016 25/24 Q1013 NOSIG

10-Day Weather Forecast

×

Almanac

Astronomy

Sep. 01, 2015 Rise Set
Actual Time
Civil Twilight
Nautical Twilight
Astronomical Twilight
Moon
Length of Visible Light
Length of Day
Tomorrow will be .
, % of the Moon is Illuminated

Today's Extremes

Country Highs Country Lows

Community

WunderPhotos

Upload Photos

1,851,490 photos uploaded!

WunderBlogs® & News

Nearby

Air Quality

  Air Quality AQ Index Pollutant
Not available.

Snow Depth

Station Depth Elevation

Earthquake Activity

City Distance Mag. Time & Date
Minimum magnitude displayed is 2.5.

Coastal Water Temperatures

Place Temperature

Stations

Nearby Weather Stations

Station Location Temp. Windchill Dew Point Humidity Wind Precip. Elev Updated Type